Time;durP1;ratioP1;P1;durP2;ratioP2;P2;SDS_P1;SDS_P2;PMS_P1;PMS_P2;Temp;Humidity;BMP_temperature;BMP_pressure;BME280_temperature;BME280_humidity;BME280_pressure;Samples;Min_cycle;Max_cycle;Signal;HPM_P1;HPM_P2
2023/01/01 00:01:21;;;;;;;22.60;17.83;;;;;;;18.29;48.51;100723.34;6178691;23;20587;-72
2023/01/01 00:03:53;;;;;;;24.67;16.95;;;;;;;18.29;48.08;100736.94;6128513;23;20447;-71
2023/01/01 00:06:20;;;;;;;23.67;17.52;;;;;;;18.29;48.45;100742.38;6181364;23;20389;-71
2023/01/01 00:08:47;;;;;;;25.17;15.85;;;;;;;18.29;48.42;100741.53;6180917;23;20009;-72
2023/01/01 00:11:14;;;;;;;24.65;16.15;;;;;;;18.31;48.13;100753.94;6181107;23;20009;-71
2023/01/01 00:13:41;;;;;;;21.45;14.90;;;;;;;18.31;48.26;100750.38;6155592;23;20320;-71
2023/01/01 00:16:10;;;;;;;23.23;14.82;;;;;;;18.32;48.12;100743.94;6156395;23;20041;-71
2023/01/01 00:18:37;;;;;;;20.33;13.90;;;;;;;18.32;48.04;100752.94;6182552;23;20024;-70
2023/01/01 00:21:12;;;;;;;25.02;14.32;;;;;;;18.32;48.20;100752.09;6182283;23;20063;-70
2023/01/01 00:23:38;;;;;;;19.42;12.82;;;;;;;18.34;48.00;100742.75;6182244;23;20020;-70
2023/01/01 00:26:13;;;;;;;18.77;11.57;;;;;;;18.34;47.91;100748.19;6182447;23;20143;-71
2023/01/01 00:28:40;;;;;;;18.60;12.13;;;;;;;18.35;47.92;100763.50;6182744;23;20072;-71
2023/01/01 00:31:13;;;;;;;17.05;10.63;;;;;;;18.35;48.08;100762.63;6156005;23;20692;-71
2023/01/01 00:33:39;;;;;;;15.80;8.20;;;;;;;18.36;48.06;100748.03;6182315;23;20021;-70
2023/01/01 00:36:07;;;;;;;17.52;9.63;;;;;;;18.37;47.71;100747.88;6182734;23;20100;-70
2023/01/01 00:38:34;;;;;;;18.33;8.15;;;;;;;18.37;47.71;100755.19;6182812;23;20013;-71
2023/01/01 00:41:01;;;;;;;16.60;7.53;;;;;;;18.37;47.96;100760.63;6182411;23;20010;-71
2023/01/01 00:43:28;;;;;;;9.07;5.25;;;;;;;18.38;47.37;100746.00;6182949;22;20386;-70
2023/01/01 00:45:54;;;;;;;14.07;6.15;;;;;;;18.39;47.29;100736.84;6156105;23;20347;-71
2023/01/01 00:48:21;;;;;;;13.15;6.05;;;;;;;18.39;47.50;100737.69;6182354;23;20088;-71
2023/01/01 00:50:48;;;;;;;13.10;6.10;;;;;;;18.41;47.33;100740.25;6182344;23;20013;-71
2023/01/01 00:53:15;;;;;;;12.27;5.13;;;;;;;18.43;47.64;100743.66;6181982;23;20021;-72
2023/01/01 00:55:42;;;;;;;11.40;5.63;;;;;;;18.42;47.66;100737.34;6155861;23;20096;-71
2023/01/01 00:58:09;;;;;;;12.00;5.50;;;;;;;18.41;47.39;100729.38;6182490;23;20024;-72
2023/01/01 01:00:37;;;;;;;10.63;4.88;;;;;;;18.40;47.33;100727.66;6182103;23;20393;-71
2023/01/01 01:03:03;;;;;;;9.13;4.70;;;;;;;18.39;47.46;100728.69;6181723;22;20025;-71
2023/01/01 01:05:32;;;;;;;6.15;3.85;;;;;;;18.38;47.41;100744.13;6182324;23;20020;-70
2023/01/01 01:07:59;;;;;;;7.93;3.85;;;;;;;18.38;47.29;100746.84;6182174;23;20087;-71
2023/01/01 01:10:25;;;;;;;9.90;4.10;;;;;;;18.37;47.11;100734.28;6182264;23;20504;-70
2023/01/01 01:12:52;;;;;;;7.15;3.10;;;;;;;18.37;47.28;100742.44;6181970;23;20017;-71
2023/01/01 01:15:19;;;;;;;8.45;3.63;;;;;;;18.38;47.06;100743.28;6182293;23;20009;-71
2023/01/01 01:17:46;;;;;;;10.70;3.08;;;;;;;18.40;46.97;100742.09;6182285;23;20021;-71
2023/01/01 01:20:12;;;;;;;8.30;3.33;;;;;;;18.41;46.87;100756.56;6156288;23;20460;-71
2023/01/01 01:22:39;;;;;;;8.68;3.22;;;;;;;18.44;46.80;100753.50;6181369;23;20021;-72
2023/01/01 01:25:06;;;;;;;11.52;3.00;;;;;;;18.45;46.59;100746.22;6182489;23;20323;-70
2023/01/01 01:27:33;;;;;;;6.55;3.35;;;;;;;18.46;46.42;100745.19;6182195;23;20040;-71
2023/01/01 01:29:59;;;;;;;10.57;3.20;;;;;;;18.48;46.54;100754.91;6182434;23;20323;-71
2023/01/01 01:32:26;;;;;;;8.80;3.03;;;;;;;18.50;46.66;100754.72;6182152;23;20020;-70
2023/01/01 01:34:52;;;;;;;9.43;2.90;;;;;;;18.50;46.17;100750.16;6182249;23;20084;-71
2023/01/01 01:37:19;;;;;;;9.05;2.65;;;;;;;18.51;46.36;100754.56;6182190;23;20017;-70
2023/01/01 01:39:46;;;;;;;7.28;3.28;;;;;;;18.51;45.96;100773.59;6182049;23;20024;-70
2023/01/01 01:42:19;;;;;;;8.45;4.05;;;;;;;18.53;45.90;100771.56;6181689;23;20041;-70
2023/01/01 01:44:48;;;;;;;8.57;3.10;;;;;;;18.50;45.91;100774.63;6182089;23;20021;-70
2023/01/01 01:47:25;;;;;;;7.55;2.85;;;;;;;18.48;46.00;100778.50;6182086;23;20410;-71
2023/01/01 01:49:57;;;;;;;7.03;3.40;;;;;;;18.45;45.71;100774.25;6182079;23;20017;-71
2023/01/01 01:52:25;;;;;;;7.10;2.90;;;;;;;18.45;45.85;100795.16;6181641;23;20499;-71
2023/01/01 01:54:53;;;;;;;6.95;2.67;;;;;;;18.43;45.77;100768.97;6181768;23;20013;-71
2023/01/01 01:57:21;;;;;;;9.30;2.97;;;;;;;18.45;45.85;100765.25;6157057;22;20387;-70
2023/01/01 01:59:51;;;;;;;9.73;2.90;;;;;;;18.43;45.70;100781.72;6182015;23;20496;-70
2023/01/01 02:02:31;;;;;;;7.95;2.63;;;;;;;18.43;45.90;100803.47;6181657;23;20013;-71
2023/01/01 02:04:58;;;;;;;6.40;2.60;;;;;;;18.42;45.98;100797.19;6182117;23;20040;-70
2023/01/01 02:07:27;;;;;;;7.25;2.80;;;;;;;18.39;46.14;100810.25;6155461;23;20037;-71
2023/01/01 02:09:54;;;;;;;12.70;2.53;;;;;;;18.35;45.77;100792.53;6156576;23;20092;-70
2023/01/01 02:12:21;;;;;;;5.70;2.55;;;;;;;18.32;45.78;100796.44;6181583;23;20103;-70
2023/01/01 02:14:47;;;;;;;5.00;2.40;;;;;;;18.31;45.77;100812.91;6181810;23;20017;-71
2023/01/01 02:17:48;;;;;;;6.90;2.42;;;;;;;18.29;45.92;100799.47;6181947;23;20104;-71
2023/01/01 02:20:30;;;;;;;5.68;2.72;;;;;;;18.30;45.84;100813.94;6181979;23;20096;-71
2023/01/01 02:23:16;;;;;;;6.50;2.88;;;;;;;18.28;45.80;100827.69;6182067;23;20096;-70
2023/01/01 02:25:51;;;;;;;6.43;2.38;;;;;;;18.26;45.77;100818.81;6182048;23;20095;-72
2023/01/01 02:28:30;;;;;;;;;;;;;;;18.28;45.74;100818.66;6182260;23;20027;-71
2023/01/01 02:31:00;;;;;;;9.85;3.50;;;;;;;18.26;45.94;100829.69;6182112;23;19917;-70
2023/01/01 02:33:28;;;;;;;7.95;2.38;;;;;;;18.21;46.16;100820.31;6181778;23;20461;-71
2023/01/01 02:36:00;;;;;;;6.88;2.50;;;;;;;18.17;46.03;100803.47;6181448;23;20024;-70
2023/01/01 02:38:31;;;;;;;5.70;2.55;;;;;;;18.14;46.06;100806.50;6181990;23;20312;-70
2023/01/01 02:41:06;;;;;;;6.18;2.60;;;;;;;18.12;46.16;100816.69;6182002;23;20020;-71
2023/01/01 02:43:33;;;;;;;7.22;2.55;;;;;;;18.09;46.02;100806.13;6181660;23;20009;-70
2023/01/01 02:46:05;;;;;;;5.95;2.80;;;;;;;18.08;45.83;100807.16;6182041;23;20383;-71
2023/01/01 02:48:46;;;;;;;8.88;5.38;;;;;;;18.05;46.02;100802.88;6181790;23;20439;-71
2023/01/01 02:51:13;;;;;;;15.90;10.68;;;;;;;18.05;45.64;100799.31;6181726;23;20439;-70
2023/01/01 02:53:58;;;;;;;14.27;7.30;;;;;;;18.03;45.93;100810.34;6181302;23;20028;-70
2023/01/01 02:56:53;;;;;;;16.27;9.55;;;;;;;18.03;45.81;100806.75;6182145;22;20017;-71
2023/01/01 03:02:35;;;;;;;8.90;3.13;;;;;;;18.01;46.18;100789.78;6181528;23;20505;-70
2023/01/01 03:05:20;;;;;;;6.40;2.92;;;;;;;17.99;45.91;100802.66;6156119;23;20028;-71
2023/01/01 03:07:50;;;;;;;8.32;2.58;;;;;;;17.98;45.91;100812.69;6181550;23;20044;-71
2023/01/01 03:10:23;;;;;;;7.55;2.33;;;;;;;17.97;46.01;100821.00;6155321;23;20341;-70
2023/01/01 03:12:57;;;;;;;6.05;2.10;;;;;;;17.95;45.92;100825.72;6181413;23;20019;-70
2023/01/01 03:15:40;;;;;;;8.77;2.50;;;;;;;17.94;45.85;100811.28;6181621;23;20508;-70
2023/01/01 03:18:09;;;;;;;8.63;2.45;;;;;;;17.94;46.10;100833.03;6181700;23;20044;-70
2023/01/01 03:20:40;;;;;;;6.68;2.38;;;;;;;17.94;46.32;100833.03;6181636;23;20435;-70
2023/01/01 03:23:14;;;;;;;6.25;2.05;;;;;;;17.94;45.96;100822.16;6181520;23;20051;-71
2023/01/01 03:25:49;;;;;;;5.60;1.95;;;;;;;17.94;45.98;100829.44;6181942;23;20385;-71
2023/01/01 03:28:24;;;;;;;5.57;2.15;;;;;;;17.94;46.03;100843.03;6155213;23;20088;-70
2023/01/01 03:30:52;;;;;;;7.25;1.98;;;;;;;17.95;46.10;100842.03;6181694;23;20088;-70
2023/01/01 03:33:37;;;;;;;6.75;2.13;;;;;;;17.94;46.16;100845.75;6181557;23;20028;-69
2023/01/01 03:36:06;;;;;;;5.88;2.50;;;;;;;17.98;46.18;100841.72;6181829;23;20017;-72
2023/01/01 03:38:42;;;;;;;3.65;2.08;;;;;;;17.99;46.09;100848.84;6155571;23;20013;-71
2023/01/01 03:41:35;;;;;;;6.85;2.10;;;;;;;17.98;46.20;100841.72;6181669;23;20040;-70
2023/01/01 03:44:19;;;;;;;4.28;2.05;;;;;;;17.99;46.09;100836.13;6181989;23;20382;-71
2023/01/01 03:46:46;;;;;;;6.85;1.80;;;;;;;18.00;46.12;100821.53;6181603;23;20019;-69
2023/01/01 03:49:14;;;;;;;6.85;2.00;;;;;;;17.99;46.47;100838.84;6181423;23;20017;-71
2023/01/01 03:52:11;;;;;;;4.88;2.22;;;;;;;17.99;46.21;100835.28;6181821;23;20439;-72
2023/01/01 03:54:44;;;;;;;4.80;2.08;;;;;;;18.00;46.08;100843.25;6181896;23;20070;-72
2023/01/01 03:57:24;;;;;;;5.85;1.95;;;;;;;17.99;46.09;100852.44;6181501;23;20052;-72
2023/01/01 04:00:04;;;;;;;5.65;2.47;;;;;;;18.00;46.45;100866.88;6181393;23;20100;-72
2023/01/01 04:02:49;;;;;;;6.40;1.80;;;;;;;18.00;46.26;100877.75;6181138;23;20354;-72
2023/01/01 04:05:17;;;;;;;6.55;1.95;;;;;;;17.98;46.46;100867.03;6181313;23;20017;-70
2023/01/01 04:07:45;;;;;;;5.32;2.13;;;;;;;17.97;46.49;100870.75;6181573;22;20095;-71
2023/01/01 04:10:16;;;;;;;6.20;2.47;;;;;;;17.95;46.58;100870.06;6181284;23;20384;-70
2023/01/01 04:12:49;;;;;;;4.55;1.95;;;;;;;17.95;46.43;100867.34;6181298;23;20070;-71
2023/01/01 04:15:18;;;;;;;4.65;1.55;;;;;;;17.95;46.50;100870.06;6181109;23;20021;-71
2023/01/01 04:17:45;;;;;;;6.00;1.73;;;;;;;17.94;46.33;100871.06;6181004;23;20043;-70
2023/01/01 04:20:13;;;;;;;5.55;2.00;;;;;;;17.95;46.23;100874.63;6181509;23;20092;-71
2023/01/01 04:22:39;;;;;;;6.00;1.77;;;;;;;17.95;46.38;100874.63;6180861;23;20092;-70
2023/01/01 04:25:07;;;;;;;6.85;1.90;;;;;;;17.95;46.50;100889.06;6180925;23;20067;-70
2023/01/01 04:27:33;;;;;;;3.70;2.13;;;;;;;17.96;46.68;100889.94;6181465;22;20013;-69
2023/01/01 04:30:00;;;;;;;5.00;2.00;;;;;;;17.96;46.67;100887.22;6180910;23;20017;-72
2023/01/01 04:32:28;;;;;;;4.18;2.00;;;;;;;17.96;46.50;100884.50;6180898;23;20017;-71
2023/01/01 04:34:55;;;;;;;5.40;1.83;;;;;;;17.97;46.70;100872.63;6181228;23;20051;-70
2023/01/01 04:37:21;;;;;;;4.05;1.83;;;;;;;17.97;46.74;100872.63;6180785;23;20009;-71
2023/01/01 04:39:48;;;;;;;5.85;1.88;;;;;;;17.97;46.84;100880.75;6181341;23;20018;-70
2023/01/01 04:42:15;;;;;;;4.80;2.13;;;;;;;17.96;46.42;100863.63;6181095;23;20092;-71
2023/01/01 04:44:42;;;;;;;3.90;2.00;;;;;;;17.94;46.53;100865.63;6181344;22;20044;-72
2023/01/01 04:47:08;;;;;;;5.15;2.00;;;;;;;17.94;46.64;100872.94;6181348;23;20016;-70
2023/01/01 04:49:35;;;;;;;3.97;1.67;;;;;;;17.92;46.83;100878.53;6181263;23;20039;-70
2023/01/01 04:52:02;;;;;;;3.83;1.95;;;;;;;17.91;46.93;100890.41;6180551;23;20017;-69
2023/01/01 04:54:29;;;;;;;9.20;1.83;;;;;;;17.90;46.84;100893.25;6181282;23;20415;-71
2023/01/01 04:56:56;;;;;;;5.63;2.10;;;;;;;17.87;46.81;100886.28;6180780;23;20021;-70
2023/01/01 04:59:22;;;;;;;4.97;2.00;;;;;;;17.86;46.74;100902.75;6181841;23;20074;-69
2023/01/01 05:01:49;;;;;;;5.38;2.10;;;;;;;17.85;46.92;100891.03;6182171;23;20017;-70
2023/01/01 05:04:16;;;;;;;7.45;1.83;;;;;;;17.85;47.31;100903.75;6182127;23;20087;-70
2023/01/01 05:06:43;;;;;;;6.53;2.05;;;;;;;17.83;47.17;100909.31;6182331;22;20017;-70
2023/01/01 05:09:10;;;;;;;7.07;2.08;;;;;;;17.83;47.06;100906.59;6182625;23;20017;-71
2023/01/01 05:11:37;;;;;;;6.53;2.10;;;;;;;17.82;47.42;100904.03;6182347;23;20013;-70
2023/01/01 05:14:04;;;;;;;8.38;2.22;;;;;;;17.82;47.56;100909.47;6182516;22;20021;-72
2023/01/01 05:16:33;;;;;;;4.80;1.77;;;;;;;17.83;47.35;100919.31;6182286;23;20018;-69
2023/01/01 05:19:00;;;;;;;6.00;1.88;;;;;;;17.83;47.19;100927.47;6182133;23;20020;-69
2023/01/01 05:21:30;;;;;;;4.30;2.00;;;;;;;17.82;47.32;100939.34;6182368;23;20020;-69
2023/01/01 05:24:03;;;;;;;5.72;2.08;;;;;;;17.81;47.44;100930.34;6182136;23;20044;-70
2023/01/01 05:26:32;;;;;;;9.68;2.38;;;;;;;17.81;47.71;100929.47;6182588;23;20090;-69
2023/01/01 05:29:00;;;;;;;5.65;1.92;;;;;;;17.80;47.80;100931.34;6182178;23;20096;-69
2023/01/01 05:31:32;;;;;;;5.53;2.30;;;;;;;17.79;47.89;100944.06;6181994;23;20021;-69
2023/01/01 05:34:00;;;;;;;5.78;1.60;;;;;;;17.78;47.52;100953.22;6182346;23;20023;-69
2023/01/01 05:36:29;;;;;;;7.38;2.00;;;;;;;17.78;47.91;100971.38;6182179;23;20035;-70
2023/01/01 05:38:57;;;;;;;5.15;1.77;;;;;;;17.78;47.85;100983.13;6182199;23;20063;-71
2023/01/01 05:41:23;;;;;;;6.85;1.88;;;;;;;17.77;47.87;100991.41;6155551;23;20017;-70
2023/01/01 05:43:51;;;;;;;5.68;1.85;;;;;;;17.76;47.92;100981.56;6182247;23;20431;-70
2023/01/01 05:46:23;;;;;;;6.88;2.10;;;;;;;17.74;47.69;100992.56;6182305;23;20017;-70
2023/01/01 05:48:52;;;;;;;5.38;2.00;;;;;;;17.74;47.83;100992.56;6182397;23;20019;-71
2023/01/01 05:51:24;;;;;;;6.55;2.15;;;;;;;17.75;47.82;100988.00;6182049;23;20047;-69
2023/01/01 05:53:53;;;;;;;6.68;2.10;;;;;;;17.75;48.20;100980.69;6181756;23;20017;-69
2023/01/01 05:56:20;;;;;;;6.13;2.05;;;;;;;17.76;48.17;100993.28;6182100;23;20347;-69
2023/01/01 05:58:47;;;;;;;5.68;2.70;;;;;;;17.75;48.24;100997.00;6182069;23;20424;-69
2023/01/01 06:01:21;;;;;;;4.70;1.85;;;;;;;17.75;47.98;101010.59;6181932;23;20506;-68
2023/01/01 06:03:48;;;;;;;4.65;1.80;;;;;;;17.75;48.07;101023.31;6182356;22;20013;-68
2023/01/01 06:06:18;;;;;;;7.72;2.85;;;;;;;17.75;48.04;101024.16;6181755;23;20024;-71
2023/01/01 06:08:49;;;;;;;6.80;2.15;;;;;;;17.75;48.01;101031.47;6182105;23;20427;-69
2023/01/01 06:11:16;;;;;;;4.78;2.05;;;;;;;17.74;48.04;101038.75;6181941;23;20013;-70
2023/01/01 06:13:43;;;;;;;6.32;2.30;;;;;;;17.72;48.17;101040.75;6182072;23;20021;-69
2023/01/01 06:16:09;;;;;;;5.38;2.17;;;;;;;17.72;48.56;101048.06;6182169;23;20013;-70
2023/01/01 06:18:37;;;;;;;8.82;2.70;;;;;;;17.71;48.61;101049.06;6182289;23;20082;-70
2023/01/01 06:21:09;;;;;;;6.35;2.20;;;;;;;17.71;48.34;101051.78;6181974;23;20040;-69
2023/01/01 06:23:36;;;;;;;4.47;2.03;;;;;;;17.69;48.49;101051.06;6181703;23;20339;-71
2023/01/01 06:26:05;;;;;;;6.65;1.92;;;;;;;17.67;48.45;101064.81;6182018;23;20021;-71
2023/01/01 06:28:31;;;;;;;5.72;1.92;;;;;;;17.66;48.68;101056.78;6181793;23;20040;-72
2023/01/01 06:31:00;;;;;;;9.48;2.28;;;;;;;17.65;48.38;101053.19;6181864;23;20064;-71
2023/01/01 06:33:27;;;;;;;6.50;2.60;;;;;;;17.66;48.86;101054.06;6181982;23;20395;-71
2023/01/01 06:35:54;;;;;;;7.82;2.25;;;;;;;17.65;48.86;101061.34;6181888;23;20021;-71
2023/01/01 06:38:20;;;;;;;5.28;2.10;;;;;;;17.64;48.53;101070.50;6181912;23;20013;-69
2023/01/01 06:41:04;;;;;;;4.20;1.90;;;;;;;17.64;48.92;101077.78;6181685;23;20021;-70
2023/01/01 06:43:33;;;;;;;7.60;2.30;;;;;;;17.63;48.86;101082.38;6181999;23;20023;-70
2023/01/01 06:46:03;;;;;;;5.05;2.10;;;;;;;17.62;48.68;101086.09;6181794;23;20020;-71
2023/01/01 06:48:33;;;;;;;8.30;2.30;;;;;;;17.61;48.69;101111.53;6182651;23;20304;-69
2023/01/01 06:51:08;;;;;;;5.78;2.30;;;;;;;17.59;49.24;101129.00;6182178;23;20023;-70
2023/01/01 06:53:35;;;;;;;5.50;2.47;;;;;;;17.56;49.54;101140.16;6181575;23;20020;-72
2023/01/01 06:56:02;;;;;;;4.75;2.22;;;;;;;17.50;49.80;101159.75;6181776;23;20037;-72
2023/01/01 06:58:29;;;;;;;7.30;2.47;;;;;;;17.41;50.32;101169.63;6181791;23;20434;-71
2023/01/01 07:01:08;;;;;;;4.82;2.15;;;;;;;17.29;50.74;101171.63;6181919;23;20017;-72
2023/01/01 07:03:36;;;;;;;8.05;2.47;;;;;;;17.18;50.64;101173.66;6181649;23;20439;-72
2023/01/01 07:06:03;;;;;;;7.40;2.65;;;;;;;17.05;51.31;101163.03;6155565;23;20024;-71
2023/01/01 07:08:30;;;;;;;8.25;2.72;;;;;;;16.97;51.37;101165.63;6182110;23;20058;-71
2023/01/01 07:10:57;;;;;;;10.52;2.88;;;;;;;16.88;51.56;101151.06;6181861;23;20017;-70
2023/01/01 07:13:24;;;;;;;5.50;3.08;;;;;;;16.81;52.19;101136.34;6184483;23;20013;-70
2023/01/01 07:15:51;;;;;;;7.93;3.25;;;;;;;16.75;52.60;101129.63;6189613;23;20021;-70
2023/01/01 07:18:19;;;;;;;6.78;3.38;;;;;;;16.73;52.45;101164.19;6181851;23;20020;-70
2023/01/01 07:21:00;;;;;;;7.90;3.38;;;;;;;16.71;52.92;101177.03;6181431;23;20016;-70
2023/01/01 07:23:29;;;;;;;10.57;3.67;;;;;;;16.71;52.78;101187.00;6155540;23;20017;-70
2023/01/01 07:25:56;;;;;;;16.40;4.20;;;;;;;16.68;52.96;101200.84;6181633;23;20010;-70
2023/01/01 07:28:24;;;;;;;10.07;3.70;;;;;;;16.64;53.17;101207.53;6181697;23;20028;-70
2023/01/01 07:30:52;;;;;;;6.75;3.70;;;;;;;16.61;53.53;101200.53;6181554;23;20016;-70
2023/01/01 07:33:21;;;;;;;8.90;4.18;;;;;;;16.57;53.53;101207.22;6181396;23;20496;-70
2023/01/01 07:35:48;;;;;;;8.55;3.70;;;;;;;16.52;53.85;101204.94;6181734;23;20016;-70
2023/01/01 07:38:15;;;;;;;5.30;3.75;;;;;;;16.48;53.89;101219.75;6181443;23;20078;-69
2023/01/01 07:40:42;;;;;;;8.95;3.95;;;;;;;16.49;54.13;101226.03;6181396;23;20339;-70
2023/01/01 07:43:08;;;;;;;9.60;4.25;;;;;;;16.48;54.12;101225.19;6180915;23;20017;-70
2023/01/01 07:45:35;;;;;;;7.22;4.10;;;;;;;16.48;54.45;101217.03;6181317;22;20028;-70
2023/01/01 07:48:02;;;;;;;8.30;4.10;;;;;;;16.48;54.66;101216.19;6181366;23;20376;-70
2023/01/01 07:50:31;;;;;;;7.68;3.97;;;;;;;16.46;54.83;101219.03;6181352;23;20342;-70
2023/01/01 07:52:58;;;;;;;7.07;3.92;;;;;;;16.43;54.86;101227.44;6155160;23;20013;-71
2023/01/01 07:55:24;;;;;;;7.28;3.75;;;;;;;16.42;54.68;101230.28;6181029;23;20025;-70
2023/01/01 07:57:51;;;;;;;8.50;3.97;;;;;;;16.37;55.16;101228.00;6181532;23;20088;-71
2023/01/01 08:00:20;;;;;;;8.00;3.88;;;;;;;16.36;54.95;101236.25;6181310;23;20061;-70
2023/01/01 08:02:47;;;;;;;7.47;3.20;;;;;;;16.33;54.99;101231.94;6181065;23;20013;-71
2023/01/01 08:05:14;;;;;;;6.18;3.50;;;;;;;16.31;55.10;101236.63;6181257;23;20013;-71
2023/01/01 08:07:49;;;;;;;7.65;3.20;;;;;;;16.32;55.42;101245.63;6181446;23;20351;-71
2023/01/01 08:10:19;;;;;;;8.30;3.35;;;;;;;16.31;55.53;101263.75;6181359;23;20492;-71
2023/01/01 08:12:46;;;;;;;7.97;3.22;;;;;;;16.29;55.31;101276.56;6181150;23;20090;-70
2023/01/01 08:15:14;;;;;;;9.07;3.53;;;;;;;16.27;55.40;101285.84;6181297;23;20427;-71
2023/01/01 08:17:40;;;;;;;5.93;2.78;;;;;;;16.25;55.70;101295.94;6181405;23;20017;-70
2023/01/01 08:20:12;;;;;;;5.40;3.50;;;;;;;16.22;55.96;101291.66;6156247;23;20435;-70
2023/01/01 08:22:40;;;;;;;7.55;3.63;;;;;;;16.21;56.29;101303.50;6180983;23;20047;-70
2023/01/01 08:25:07;;;;;;;11.20;4.07;;;;;;;16.19;56.00;101303.63;6154835;23;20383;-71
2023/01/01 08:27:34;;;;;;;6.65;3.40;;;;;;;16.17;56.27;101315.59;6181215;23;20021;-70
2023/01/01 08:30:01;;;;;;;7.68;3.38;;;;;;;16.15;56.76;101331.13;6181035;23;20021;-69
2023/01/01 08:32:27;;;;;;;8.38;3.88;;;;;;;16.12;56.79;101339.53;6181213;23;20127;-70
2023/01/01 08:34:54;;;;;;;8.80;3.92;;;;;;;16.08;56.67;101348.91;6182453;23;20021;-70
2023/01/01 08:37:21;;;;;;;6.75;2.70;;;;;;;16.01;56.82;101347.72;6182544;23;20407;-70
2023/01/01 08:39:49;;;;;;;8.27;2.30;;;;;;;15.95;56.83;101334.69;6182416;23;20017;-70
2023/01/01 08:42:16;;;;;;;7.70;2.40;;;;;;;15.91;57.02;101339.53;6182494;23;20017;-70
2023/01/01 08:44:43;;;;;;;5.50;2.33;;;;;;;15.85;57.09;101350.88;6182511;23;20087;-70
2023/01/01 08:47:18;;;;;;;5.45;2.30;;;;;;;15.81;57.62;101344.88;6156534;23;20017;-70
2023/01/01 08:49:45;;;;;;;4.85;2.03;;;;;;;15.82;57.23;101332.19;6182801;23;20009;-70
2023/01/01 08:52:12;;;;;;;4.30;2.42;;;;;;;15.79;57.65;101335.16;6182107;23;20083;-70
2023/01/01 08:54:38;;;;;;;6.53;2.40;;;;;;;15.74;57.88;101330.13;6182681;23;20021;-70
2023/01/01 08:57:05;;;;;;;4.47;2.05;;;;;;;15.72;57.63;101342.09;6182740;23;20021;-70
2023/01/01 08:59:32;;;;;;;7.80;2.15;;;;;;;15.71;57.86;101349.34;6182736;23;20062;-70
2023/01/01 09:01:58;;;;;;;6.45;2.38;;;;;;;15.69;58.10;101351.31;6181817;23;20023;-70
2023/01/01 09:04:25;;;;;;;6.80;2.53;;;;;;;15.67;57.80;101350.59;6182642;23;20017;-69
2023/01/01 09:06:52;;;;;;;6.53;2.20;;;;;;;15.67;58.09;101355.16;6182427;23;20016;-71
2023/01/01 09:09:19;;;;;;;6.30;2.40;;;;;;;15.66;58.11;101348.88;6182309;23;20498;-70
2023/01/01 09:11:57;;;;;;;7.95;2.42;;;;;;;15.68;58.30;101357.72;6182023;23;20447;-70
2023/01/01 09:14:24;;;;;;;6.22;2.65;;;;;;;15.70;58.51;101347.63;6182222;23;20017;-71
2023/01/01 09:16:51;;;;;;;8.82;2.60;;;;;;;15.73;58.42;101351.91;6182792;23;20444;-70
2023/01/01 09:19:17;;;;;;;7.10;2.90;;;;;;;15.75;58.46;101344.53;6182220;23;20324;-69
2023/01/01 09:21:44;;;;;;;8.20;2.95;;;;;;;15.77;58.70;101356.09;6182044;23;20074;-70
2023/01/01 09:24:10;;;;;;;5.63;2.60;;;;;;;15.79;58.51;101363.09;6182069;23;20084;-70
2023/01/01 09:26:37;;;;;;;5.93;2.95;;;;;;;15.81;58.89;101365.66;6182165;23;20021;-70
2023/01/01 09:29:03;;;;;;;8.27;3.20;;;;;;;15.85;58.64;101369.84;6182154;23;20096;-70
2023/01/01 09:31:30;;;;;;;6.97;3.20;;;;;;;15.86;58.66;101356.16;6182181;23;20023;-69
2023/01/01 09:33:56;;;;;;;8.95;3.00;;;;;;;15.86;59.02;101358.00;6182279;22;20017;-70
2023/01/01 09:36:23;;;;;;;6.68;3.10;;;;;;;15.86;59.28;101361.59;6155827;23;20025;-70
2023/01/01 09:38:51;;;;;;;7.47;3.35;;;;;;;15.89;59.30;101371.28;6182204;23;20385;-71
2023/01/01 09:41:29;;;;;;;11.80;4.35;;;;;;;15.89;59.02;101361.31;6182199;23;20009;-70
2023/01/01 09:44:13;;;;;;;8.15;3.42;;;;;;;15.92;59.44;101362.03;6181576;22;20016;-70
2023/01/01 09:46:40;;;;;;;10.15;4.40;;;;;;;15.94;58.95;101366.34;6155427;23;20328;-70
2023/01/01 09:49:28;;;;;;;11.23;4.28;;;;;;;15.93;59.51;101372.75;6181615;23;20015;-71
2023/01/01 09:52:00;;;;;;;9.93;3.90;;;;;;;15.96;59.39;101366.22;6182016;23;20017;-69
2023/01/01 09:54:39;;;;;;;9.45;3.97;;;;;;;15.95;59.65;101370.78;6180835;23;20148;-70
2023/01/01 09:57:09;;;;;;;8.15;3.55;;;;;;;15.96;59.12;101371.63;6181401;22;20494;-70
2023/01/01 09:59:45;;;;;;;7.28;3.45;;;;;;;15.95;59.14;101384.31;6181543;23;20447;-70
2023/01/01 10:02:36;;;;;;;7.75;3.75;;;;;;;15.95;59.22;101389.75;6178466;23;20451;-70
2023/01/01 10:05:20;;;;;;;7.07;3.10;;;;;;;15.94;59.49;101388.00;6179116;23;20309;-70
2023/01/01 10:07:58;;;;;;;6.57;3.30;;;;;;;15.93;59.09;101383.59;6179726;23;20063;-70
2023/01/01 10:10:50;;;;;;;7.50;3.30;;;;;;;15.92;59.07;101376.44;6179595;23;20091;-70
2023/01/01 10:13:35;;;;;;;11.10;4.13;;;;;;;15.93;59.16;101367.34;6179591;23;20075;-69
2023/01/01 10:16:19;;;;;;;10.15;3.92;;;;;;;15.90;59.22;101375.72;6154713;23;20451;-69
2023/01/01 10:18:56;;;;;;;9.75;4.00;;;;;;;15.89;59.24;101371.28;6181980;23;20060;-69
2023/01/01 10:21:37;;;;;;;6.35;3.85;;;;;;;15.89;59.38;101374.88;6180938;22;20017;-73
2023/01/01 10:24:34;;;;;;;7.20;3.65;;;;;;;15.88;59.23;101370.44;6181902;23;20009;-71
2023/01/01 10:27:03;;;;;;;9.73;3.70;;;;;;;15.89;59.28;101350.47;6181696;23;20020;-71
2023/01/01 10:29:42;;;;;;;9.02;3.67;;;;;;;15.88;59.39;101365.03;6155782;23;20091;-71
2023/01/01 10:32:35;;;;;;;7.32;3.72;;;;;;;15.86;59.07;101350.75;6181823;23;20044;-72
2023/01/01 10:35:09;;;;;;;7.40;3.17;;;;;;;15.86;59.29;101344.47;6182061;23;20019;-72
2023/01/01 10:37:37;;;;;;;9.52;3.60;;;;;;;15.84;58.89;101350.03;6181867;23;20013;-72
2023/01/01 10:40:18;;;;;;;7.60;3.33;;;;;;;15.81;59.60;101354.84;6181751;23;20033;-71
2023/01/01 10:42:50;;;;;;;10.73;3.60;;;;;;;15.81;59.65;101357.56;6182010;23;20469;-71
2023/01/01 10:45:24;;;;;;;10.35;4.10;;;;;;;15.79;59.40;101357.69;6181934;23;20021;-71
2023/01/01 10:48:10;;;;;;;11.55;4.47;;;;;;;15.80;59.88;101372.06;6181938;23;20019;-72
2023/01/01 10:50:42;;;;;;;10.70;4.95;;;;;;;15.82;59.91;101376.38;6155526;23;20025;-72
2023/01/01 10:53:51;;;;;;;9.20;4.63;;;;;;;15.87;59.63;101365.16;6181947;23;20016;-71
2023/01/01 10:56:20;;;;;;;9.95;4.78;;;;;;;15.94;59.69;101373.63;6181941;23;20338;-70
2023/01/01 10:58:54;;;;;;;8.40;4.10;;;;;;;15.96;60.03;101377.91;6181635;23;20009;-71
2023/01/01 11:01:24;;;;;;;9.13;4.35;;;;;;;16.00;59.93;101367.66;6155548;22;20021;-72
2023/01/01 11:03:53;;;;;;;8.52;4.05;;;;;;;16.01;59.75;101372.97;6182052;23;20051;-72
2023/01/01 11:06:24;;;;;;;7.07;3.50;;;;;;;16.05;59.73;101371.69;6181720;23;20013;-72
2023/01/01 11:08:53;;;;;;;8.52;3.95;;;;;;;16.09;60.10;101369.59;6181792;22;20477;-71
2023/01/01 11:11:26;;;;;;;13.23;4.05;;;;;;;16.15;59.92;101369.91;6181842;23;20443;-71
2023/01/01 11:13:55;;;;;;;9.02;3.63;;;;;;;16.21;59.93;101374.81;6181795;22;20013;-71
2023/01/01 11:16:23;;;;;;;10.52;3.67;;;;;;;16.30;59.83;101375.88;6182001;23;20024;-72
2023/01/01 11:18:50;;;;;;;9.65;3.97;;;;;;;16.37;60.22;101374.38;6155729;22;20009;-71
2023/01/01 11:21:21;;;;;;;12.00;4.47;;;;;;;16.44;60.27;101374.69;6181813;23;20092;-71
2023/01/01 11:23:50;;;;;;;13.00;4.07;;;;;;;16.48;59.68;101381.56;6181847;23;20342;-71
2023/01/01 11:26:16;;;;;;;7.32;3.08;;;;;;;16.52;59.39;101386.59;6181766;23;20009;-72
2023/01/01 11:29:21;;;;;;;9.13;3.95;;;;;;;16.54;59.98;101386.44;6181824;22;20447;-71
2023/01/01 11:31:48;;;;;;;12.27;3.53;;;;;;;16.60;59.44;101396.75;6150474;23;20098;-71
2023/01/01 11:34:34;;;;;;;10.13;3.75;;;;;;;16.61;59.72;101403.03;6181312;23;20043;-71
2023/01/01 11:37:13;;;;;;;12.00;3.90;;;;;;;16.61;59.36;101398.47;6180831;23;20038;-71
2023/01/01 11:39:45;;;;;;;8.68;3.58;;;;;;;16.64;59.28;101387.38;6181647;23;20013;-71
2023/01/01 11:42:23;;;;;;;13.50;5.07;;;;;;;16.67;59.57;101384.41;6155047;22;20444;-72
2023/01/01 11:45:15;;;;;;;11.00;3.67;;;;;;;16.67;59.38;101380.84;6181383;23;20316;-72